Time;durP1;ratioP1;P1;durP2;ratioP2;P2;SDS_P1;SDS_P2;PMS_P1;PMS_P2;Temp;Humidity;BMP_temperature;BMP_pressure;BME280_temperature;BME280_humidity;BME280_pressure;Samples;Min_cycle;Max_cycle;Signal;HPM_P1;HPM_P2
2022/11/24 00:01:26;;;;;;;;;;;;;;;20.67;47.14;100212.41;5101271;27;4336;-66
2022/11/24 00:03:53;;;;;;;;;;;;;;;20.66;46.88;100216.66;5102429;27;3979;-66
2022/11/24 00:06:20;;;;;;;;;;;;;;;20.68;47.25;100222.47;5105489;27;5261;-65
2022/11/24 00:08:46;;;;;;;;;;;;;;;20.68;47.15;100213.84;5102810;27;4207;-65
2022/11/24 00:11:13;;;;;;;;;;;;;;;20.68;47.26;100213.84;5099848;27;4179;-66
2022/11/24 00:13:40;;;;;;;;;;;;;;;20.65;47.26;100218.06;5096331;27;4150;-65
2022/11/24 00:16:13;;;;;;;;;;;;;;;20.65;46.96;100215.19;5102204;27;4104;-65
2022/11/24 00:18:40;;;;;;;;;;;;;;;20.64;47.24;100207.97;5106452;27;4054;-66
2022/11/24 00:21:06;;;;;;;;;;;;;;;20.64;47.09;100219.50;5099324;27;4369;-66
2022/11/24 00:23:33;;;;;;;;;;;;;;;20.63;47.12;100215.13;5102738;27;4170;-66
2022/11/24 00:26:25;;;;;;;;;;;;;;;20.62;47.26;100210.78;5106805;27;5221;-66
2022/11/24 00:28:53;;;;;;;;;;;;;;;20.62;47.35;100208.63;5100734;27;4016;-65
2022/11/24 00:31:23;;;;;;;;;;;;;;;20.62;47.30;100211.50;5105391;27;4162;-65
2022/11/24 00:33:50;;;;;;;;;;;;;;;20.64;47.34;100210.84;5111037;27;5286;-66
2022/11/24 00:36:16;;;;;;;;;;;;;;;20.64;47.32;100210.84;5116866;27;4114;-65
2022/11/24 00:38:43;;;;;;;;;;;;;;;20.65;47.23;100209.44;5114633;27;5260;-65
2022/11/24 00:41:09;;;;;;;;;;;;;;;20.66;47.14;100199.41;5110369;27;5249;-65
2022/11/24 00:43:36;;;;;;;;;;;;;;;20.66;47.21;100199.41;5110786;27;5213;-65
2022/11/24 00:46:02;;;;;;;;;;;;;;;20.66;47.18;100211.66;5119805;27;4130;-64
2022/11/24 00:48:29;;;;;;;;;;;;;;;20.66;47.38;100217.41;5113036;27;5186;-65
2022/11/24 00:51:02;;;;;;;;;;;;;;;20.67;47.38;100212.41;5100195;27;4106;-66
2022/11/24 00:53:28;;;;;;;;;;;;;;;20.65;47.23;100220.94;5106124;27;4146;-65
2022/11/24 00:55:55;;;;;;;;;;;;;;;20.64;47.26;100228.84;5115972;27;4116;-65
2022/11/24 00:58:21;;;;;;;;;;;;;;;20.65;47.27;100233.19;5118860;27;4188;-65
2022/11/24 01:00:48;;;;;;;;;;;;;;;20.65;47.49;100241.09;5110140;27;4383;-66
2022/11/24 01:03:15;;;;;;;;;;;;;;;20.64;47.26;100239.63;5111300;27;4138;-65
2022/11/24 01:05:41;;;;;;;;;;;;;;;20.63;47.51;100227.34;5118028;27;4133;-66
2022/11/24 01:08:07;;;;;;;;;;;;;;;20.63;47.47;100226.63;5113685;27;5394;-66
2022/11/24 01:10:34;;;;;;;;;;;;;;;20.62;47.51;100233.78;5105784;27;4112;-65
2022/11/24 01:13:00;;;;;;;;;;;;;;;20.61;47.53;100233.03;5099115;27;5196;-66
2022/11/24 01:15:26;;;;;;;;;;;;;;;20.61;47.59;100232.31;5101512;27;4164;-65
2022/11/24 01:17:53;;;;;;;;;;;;;;;20.63;47.46;100230.25;5111556;27;5024;-65
2022/11/24 01:20:19;;;;;;;;;;;;;;;20.64;47.56;100231.00;5102936;27;4236;-65
2022/11/24 01:22:46;;;;;;;;;;;;;;;20.64;47.39;100228.13;5107678;27;4412;-65
2022/11/24 01:25:13;;;;;;;;;;;;;;;20.65;47.47;100238.22;5106746;27;4161;-65
2022/11/24 01:27:39;;;;;;;;;;;;;;;20.66;47.47;100239.66;5099752;27;5362;-65
2022/11/24 01:30:06;;;;;;;;;;;;;;;20.66;47.48;100239.66;5105110;27;4177;-65
2022/11/24 01:32:32;;;;;;;;;;;;;;;20.67;47.58;100258.41;5097468;27;5449;-65
2022/11/24 01:34:59;;;;;;;;;;;;;;;20.65;47.51;100250.44;5089648;28;4432;-66
2022/11/24 01:37:25;;;;;;;;;;;;;;;20.66;47.38;100251.19;5092392;27;5456;-66
2022/11/24 01:39:51;;;;;;;;;;;;;;;20.65;47.65;100249.72;5097771;27;4108;-66
2022/11/24 01:42:18;;;;;;;;;;;;;;;20.64;47.72;100243.22;5097471;28;5348;-65
2022/11/24 01:44:44;;;;;;;;;;;;;;;20.63;47.45;100255.41;5072158;28;4141;-65
2022/11/24 01:47:13;;;;;;;;;;;;;;;20.64;47.59;100254.00;5092143;27;4374;-66
2022/11/24 01:49:40;;;;;;;;;;;;;;;20.63;47.78;100252.53;5094570;28;4128;-66
2022/11/24 01:52:06;;;;;;;;;;;;;;;20.63;47.64;100258.28;5085705;28;4107;-66
2022/11/24 01:54:37;;;;;;;;;;;;;;;20.63;47.60;100256.13;5094883;27;4136;-65
2022/11/24 01:57:09;;;;;;;;;;;;;;;20.62;47.53;100256.81;5095846;28;4208;-66
2022/11/24 01:59:35;;;;;;;;;;;;;;;20.64;47.75;100263.38;5094422;27;4125;-65
2022/11/24 02:02:02;;;;;;;;;;;;;;;20.64;47.53;100256.88;5093932;27;4109;-66
2022/11/24 02:04:29;;;;;;;;;;;;;;;20.63;47.58;100261.88;5098000;28;4169;-66
2022/11/24 02:06:56;;;;;;;;;;;;;;;20.64;47.50;100265.50;5080096;28;5389;-66
2022/11/24 02:09:24;;;;;;;;;;;;;;;20.64;47.41;100263.38;5084363;27;4095;-65
2022/11/24 02:11:50;;;;;;;;;;;;;;;20.65;47.57;100275.59;5099170;27;5266;-65
2022/11/24 02:14:16;;;;;;;;;;;;;;;20.64;47.63;100266.25;5094983;28;4190;-65
2022/11/24 02:16:43;;;;;;;;;;;;;;;20.65;47.78;100256.19;5082826;28;5317;-66
2022/11/24 02:19:13;;;;;;;;;;;;;;;20.65;47.73;100269.84;5081675;28;4210;-66
2022/11/24 02:21:39;;;;;;;;;;;;;;;20.65;47.74;100269.84;5086749;27;4349;-65
2022/11/24 02:24:08;;;;;;;;;;;;;;;20.64;47.78;100272.00;5110651;28;4354;-66
2022/11/24 02:26:39;;;;;;;;;;;;;;;20.63;47.61;100275.53;5080331;28;4186;-65
2022/11/24 02:29:06;;;;;;;;;;;;;;;20.63;47.63;100266.91;5095837;28;4238;-65
2022/11/24 02:31:32;;;;;;;;;;;;;;;20.61;47.64;100266.81;5101790;28;4141;-66
2022/11/24 02:33:58;;;;;;;;;;;;;;;20.61;47.72;100267.56;5090936;28;5780;-65
2022/11/24 02:36:25;;;;;;;;;;;;;;;20.60;47.93;100260.34;5093457;28;4431;-66
2022/11/24 02:38:51;;;;;;;;;;;;;;;20.61;47.91;100261.06;5096118;28;4101;-66
2022/11/24 02:41:18;;;;;;;;;;;;;;;20.61;47.75;100266.81;5085058;28;4136;-66
2022/11/24 02:43:48;;;;;;;;;;;;;;;20.61;47.74;100267.56;5084755;28;5521;-65
2022/11/24 02:46:14;;;;;;;;;;;;;;;20.60;47.78;100271.13;5093528;27;5199;-65
2022/11/24 02:48:40;;;;;;;;;;;;;;;20.62;47.73;100276.94;5100658;28;4099;-65
2022/11/24 02:51:07;;;;;;;;;;;;;;;20.63;47.68;100278.41;5102366;28;4124;-66
2022/11/24 02:53:33;;;;;;;;;;;;;;;20.63;47.87;100272.66;5101496;28;4867;-65
2022/11/24 02:55:59;;;;;;;;;;;;;;;20.65;47.80;100269.84;5101159;28;5158;-65
2022/11/24 02:58:26;;;;;;;;;;;;;;;20.66;47.90;100268.44;5102813;27;4170;-65
2022/11/24 03:00:53;;;;;;;;;;;;;;;20.64;47.65;100271.28;5103581;28;4182;-65
2022/11/24 03:03:20;;;;;;;;;;;;;;;20.65;47.91;100296.47;5100550;27;4255;-65
2022/11/24 03:05:46;;;;;;;;;;;;;;;20.63;47.79;100287.03;5091267;28;4194;-65
2022/11/24 03:08:12;;;;;;;;;;;;;;;20.63;47.68;100292.78;5089424;28;4216;-66
2022/11/24 03:10:39;;;;;;;;;;;;;;;20.62;47.65;100291.34;5101108;28;4925;-66
2022/11/24 03:13:05;;;;;;;;;;;;;;;20.61;47.91;100289.84;5106565;28;4277;-65
2022/11/24 03:15:31;;;;;;;;;;;;;;;20.61;47.98;100295.59;5097441;28;4000;-66
2022/11/24 03:17:58;;;;;;;;;;;;;;;20.61;47.77;100295.59;5107826;28;4253;-65
2022/11/24 03:20:24;;;;;;;;;;;;;;;20.60;47.79;100294.13;5106792;28;4158;-65
2022/11/24 03:22:50;;;;;;;;;;;;;;;20.58;47.75;100291.19;5107147;28;4143;-65
2022/11/24 03:25:17;;;;;;;;;;;;;;;20.59;47.95;100286.88;5108444;28;4271;-66
2022/11/24 03:27:43;;;;;;;;;;;;;;;20.58;47.88;100286.16;5110639;28;4009;-65
2022/11/24 03:30:10;;;;;;;;;;;;;;;20.59;47.77;100289.75;5105658;28;4073;-65
2022/11/24 03:32:37;;;;;;;;;;;;;;;20.60;47.77;100297.00;5108105;27;3992;-65
2022/11/24 03:35:03;;;;;;;;;;;;;;;20.61;48.00;100302.06;5112838;27;4175;-65
2022/11/24 03:37:29;;;;;;;;;;;;;;;20.60;47.88;100299.88;5114835;27;5311;-65
2022/11/24 03:39:56;;;;;;;;;;;;;;;20.61;47.74;100307.09;5100908;27;4341;-66
2022/11/24 03:42:22;;;;;;;;;;;;;;;20.61;48.00;100304.22;5107561;27;4489;-64
2022/11/24 03:44:49;;;;;;;;;;;;;;;20.59;47.84;100292.63;5113664;27;4011;-66
2022/11/24 03:47:15;;;;;;;;;;;;;;;20.60;47.94;100305.63;5116826;27;4168;-66
2022/11/24 03:49:41;;;;;;;;;;;;;;;20.61;47.99;100307.09;5099707;27;4136;-66
2022/11/24 03:52:08;;;;;;;;;;;;;;;20.62;47.90;100308.59;5112661;27;4325;-65
2022/11/24 03:54:34;;;;;;;;;;;;;;;20.62;47.86;100305.72;5103315;27;4099;-65
2022/11/24 03:57:01;;;;;;;;;;;;;;;20.64;47.94;100300.03;5113435;27;4183;-66
2022/11/24 03:59:27;;;;;;;;;;;;;;;20.64;47.87;100305.78;5111060;27;4187;-66
2022/11/24 04:01:53;;;;;;;;;;;;;;;20.66;47.94;100308.72;5101269;27;4428;-65
2022/11/24 04:04:20;;;;;;;;;;;;;;;20.66;47.76;100297.22;5115093;27;5097;-65
2022/11/24 04:06:46;;;;;;;;;;;;;;;20.66;47.81;100303.72;5114877;27;5473;-65
2022/11/24 04:09:12;;;;;;;;;;;;;;;20.68;47.75;100306.69;5111779;27;4354;-65
2022/11/24 04:14:23;;;;;;;;;;;;;;;20.69;47.90;100307.41;5106338;27;5243;-66
2022/11/24 04:16:50;;;;;;;;;;;;;;;20.70;48.04;100308.88;5111913;27;4117;-66
2022/11/24 04:19:16;;;;;;;;;;;;;;;20.70;48.08;100318.22;5110078;27;4120;-64
2022/11/24 04:21:43;;;;;;;;;;;;;;;20.70;47.88;100320.38;5116038;27;4204;-65
2022/11/24 04:24:09;;;;;;;;;;;;;;;20.70;48.00;100329.00;5116057;27;4010;-65
2022/11/24 04:26:35;;;;;;;;;;;;;;;20.70;47.77;100332.63;5111730;27;5266;-65
2022/11/24 04:29:02;;;;;;;;;;;;;;;20.69;48.05;100334.03;5115323;27;5287;-66
2022/11/24 04:31:28;;;;;;;;;;;;;;;20.67;47.83;100345.47;5114860;27;3945;-66
2022/11/24 04:33:54;;;;;;;;;;;;;;;20.67;47.90;100350.47;5121902;27;5295;-65
2022/11/24 04:36:21;;;;;;;;;;;;;;;20.67;47.85;100356.22;5108359;27;4175;-66
2022/11/24 04:38:47;;;;;;;;;;;;;;;20.67;47.88;100350.47;5100103;27;4036;-66
2022/11/24 04:41:33;;;;;;;;;;;;;;;20.66;47.87;100357.63;5106626;27;5227;-66
2022/11/24 04:44:00;;;;;;;;;;;;;;;20.65;47.92;100361.91;5112692;27;4194;-66
2022/11/24 04:46:26;;;;;;;;;;;;;;;20.66;48.04;100354.75;5098232;27;4319;-65
2022/11/24 04:48:53;;;;;;;;;;;;;;;20.66;48.07;100354.75;5105178;27;4085;-66
2022/11/24 04:51:19;;;;;;;;;;;;;;;20.67;47.82;100364.88;5095988;27;4134;-66
2022/11/24 04:53:46;;;;;;;;;;;;;;;20.68;47.94;100357.69;5109336;27;4213;-65
2022/11/24 04:56:13;;;;;;;;;;;;;;;20.70;47.83;100367.13;5100902;27;4018;-66
2022/11/24 04:58:39;;;;;;;;;;;;;;;20.71;47.93;100376.53;5102533;27;4161;-66
2022/11/24 05:01:07;;;;;;;;;;;;;;;20.73;47.93;100375.84;5098204;27;4182;-65
2022/11/24 05:03:33;;;;;;;;;;;;;;;20.73;47.99;100382.38;5104788;27;4248;-66
2022/11/24 05:06:00;;;;;;;;;;;;;;;20.74;47.94;100394.59;5106184;27;4103;-66
2022/11/24 05:08:26;;;;;;;;;;;;;;;20.74;47.85;100383.09;5108936;27;5216;-67
2022/11/24 05:10:53;;;;;;;;;;;;;;;20.75;47.95;100384.56;5097674;27;4181;-66
2022/11/24 05:13:19;;;;;;;;;;;;;;;20.75;47.83;100382.41;5108037;27;5226;-65
2022/11/24 05:15:45;;;;;;;;;;;;;;;20.75;47.84;100393.91;5108471;27;4174;-66
2022/11/24 05:18:12;;;;;;;;;;;;;;;20.76;48.11;100392.53;5100636;27;4270;-66
2022/11/24 05:20:38;;;;;;;;;;;;;;;20.76;47.87;100397.56;5108146;27;4104;-65
2022/11/24 05:23:05;;;;;;;;;;;;;;;20.76;47.96;100391.81;5112678;27;4201;-65
2022/11/24 05:25:32;;;;;;;;;;;;;;;20.74;47.93;100398.22;5101820;27;5317;-65
2022/11/24 05:27:59;;;;;;;;;;;;;;;20.74;47.83;100409.72;5113267;27;4200;-66
2022/11/24 05:30:25;;;;;;;;;;;;;;;20.74;47.85;100406.84;5107304;27;4302;-65
2022/11/24 05:32:52;;;;;;;;;;;;;;;20.73;47.81;100399.63;5107149;27;4309;-66
2022/11/24 05:35:18;;;;;;;;;;;;;;;20.74;48.07;100409.00;5096578;27;4241;-65
2022/11/24 05:37:46;;;;;;;;;;;;;;;20.74;47.90;100412.59;5104148;27;5224;-65
2022/11/24 05:40:12;;;;;;;;;;;;;;;20.74;47.80;100412.59;5105600;27;4585;-66
2022/11/24 05:42:41;;;;;;;;;;;;;;;20.75;47.92;100408.31;5109730;27;4053;-65
2022/11/24 05:45:14;;;;;;;;;;;;;;;20.76;47.87;100403.31;5108825;27;5390;-64
2022/11/24 05:47:40;;;;;;;;;;;;;;;20.75;47.90;100402.56;5114490;27;4089;-65
2022/11/24 05:50:07;;;;;;;;;;;;;;;20.75;47.91;100414.06;5104896;27;3954;-65
2022/11/24 05:52:33;;;;;;;;;;;;;;;20.77;47.82;100410.53;5096712;27;5450;-65
2022/11/24 05:55:00;;;;;;;;;;;;;;;20.77;47.92;100416.28;5095987;27;4353;-64
2022/11/24 05:57:26;;;;;;;;;;;;;;;20.77;47.99;100417.03;5087535;27;4181;-65
2022/11/24 05:59:52;;;;;;;;;;;;;;;20.77;47.97;100419.16;5088878;28;5727;-66
2022/11/24 06:02:19;;;;;;;;;;;;;;;20.78;48.07;100423.53;5094145;27;4171;-63
2022/11/24 06:04:45;;;;;;;;;;;;;;;20.48;46.02;100426.69;5095600;28;4268;-63
2022/11/24 06:07:12;;;;;;;;;;;;;;;20.59;46.59;100427.84;5091257;27;4195;-63
2022/11/24 06:09:38;;;;;;;;;;;;;;;20.66;47.06;100441.81;5082088;28;4107;-63
2022/11/24 06:12:05;;;;;;;;;;;;;;;20.72;47.49;100438.41;5081181;28;4217;-71
2022/11/24 06:14:31;;;;;;;;;;;;;;;20.75;47.47;100442.84;5088815;28;5459;-72
2022/11/24 06:17:17;;;;;;;;;;;;;;;20.79;47.93;100445.88;5095674;28;4111;-72
2022/11/24 06:19:46;;;;;;;;;;;;;;;20.79;47.94;100443.00;5083437;27;4129;-71
2022/11/24 06:22:13;;;;;;;;;;;;;;;20.86;48.01;100452.59;5098769;27;4437;-73
2022/11/24 06:24:39;;;;;;;;;;;;;;;20.82;48.57;100453.19;5089354;28;5402;-72
2022/11/24 06:27:06;;;;;;;;;;;;;;;20.81;48.72;100448.84;5102056;28;4192;-72
2022/11/24 06:29:32;;;;;;;;;;;;;;;20.85;49.03;100457.63;5102452;28;4109;-73
2022/11/24 06:31:59;;;;;;;;;;;;;;;20.85;49.13;100451.88;5091941;28;4185;-73
2022/11/24 06:34:25;;;;;;;;;;;;;;;20.88;49.49;100452.69;5097906;28;4178;-73
2022/11/24 06:36:52;;;;;;;;;;;;;;;20.92;49.41;100447.81;5098952;28;4195;-73
2022/11/24 06:39:18;;;;;;;;;;;;;;;20.96;49.23;100455.13;5095995;27;5183;-72
2022/11/24 06:41:44;;;;;;;;;;;;;;;20.98;49.13;100458.06;5098185;28;5403;-73
2022/11/24 06:44:11;;;;;;;;;;;;;;;21.01;49.04;100466.13;5096215;28;4159;-73
2022/11/24 06:46:37;;;;;;;;;;;;;;;21.02;48.88;100472.63;5091149;28;5185;-75
2022/11/24 06:49:03;;;;;;;;;;;;;;;21.09;48.32;100468.56;5091653;28;4160;-69
2022/11/24 06:51:30;;;;;;;;;;;;;;;21.15;48.43;100477.44;5088097;28;4135;-70
2022/11/24 06:53:56;;;;;;;;;;;;;;;19.28;44.78;100485.59;5087672;28;6289;-75
2022/11/24 06:56:22;;;;;;;;;;;;;;;18.06;43.32;100484.16;5107920;28;4241;-75
2022/11/24 06:58:49;;;;;;;;;;;;;;;17.29;42.66;100487.38;5107027;28;4185;-72
2022/11/24 07:01:16;;;;;;;;;;;;;;;17.57;42.50;100486.00;5097079;28;4454;-70
2022/11/24 07:03:43;;;;;;;;;;;;;;;18.93;41.15;100484.03;5101320;28;4121;-73
2022/11/24 07:06:09;;;;;;;;;;;;;;;20.10;41.69;100478.38;5104852;28;4061;-70
2022/11/24 07:08:35;;;;;;;;;;;;;;;20.67;42.31;100488.56;5104605;27;4161;-70
2022/11/24 07:11:05;;;;;;;;;;;;;;;20.98;42.69;100486.84;5106854;27;5219;-70
2022/11/24 07:13:31;;;;;;;;;;;;;;;21.19;43.15;100492.00;5111261;27;4110;-71
2022/11/24 07:15:58;;;;;;;;;;;;;;;21.31;43.26;100494.56;5106932;27;4215;-73
2022/11/24 07:18:24;;;;;;;;;;;;;;;21.41;43.58;100491.34;5114096;27;4379;-72
2022/11/24 07:20:51;;;;;;;;;;;;;;;21.42;43.70;100493.56;5100925;27;4259;-68
2022/11/24 07:23:17;;;;;;;;;;;;;;;21.48;43.69;100493.78;5107819;27;4201;-69
2022/11/24 07:25:43;;;;;;;;;;;;;;;21.55;44.03;100500.50;5111928;27;4968;-69
2022/11/24 07:28:10;;;;;;;;;;;;;;;21.54;43.91;100496.16;5118542;27;4162;-68
2022/11/24 07:30:36;;;;;;;;;;;;;;;21.59;43.93;100494.16;5104216;27;3992;-68
2022/11/24 07:33:02;;;;;;;;;;;;;;;21.60;44.25;100507.13;5104190;27;4146;-69
2022/11/24 07:35:29;;;;;;;;;;;;;;;21.65;44.37;100511.66;5093401;27;5522;-66
2022/11/24 07:37:55;;;;;;;;;;;;;;;21.42;44.53;100527.41;5088114;27;3920;-69
2022/11/24 07:40:22;;;;;;;;;;;;;;;21.40;45.46;100527.31;5110561;27;4168;-71
2022/11/24 07:42:48;;;;;;;;;;;;;;;21.12;45.27;100525.56;5103990;27;4240;-69
2022/11/24 07:45:14;;;;;;;;;;;;;;;21.22;44.53;100513.69;5096025;27;4198;-68
2022/11/24 07:47:41;;;;;;;;;;;;;;;21.29;45.87;100518.28;5105666;27;5355;-68
2022/11/24 07:50:11;;;;;;;;;;;;;;;21.32;45.87;100525.56;5111673;27;3989;-68
2022/11/24 07:52:37;;;;;;;;;;;;;;;21.29;45.83;100520.41;5100993;27;4104;-68
2022/11/24 07:55:04;;;;;;;;;;;;;;;21.30;46.03;100516.13;5108212;27;4110;-68
2022/11/24 07:57:30;;;;;;;;;;;;;;;21.27;46.20;100529.72;5100536;27;5392;-68
2022/11/24 07:59:57;;;;;;;;;;;;;;;21.27;46.38;100526.84;5098449;27;4206;-68
2022/11/24 08:02:23;;;;;;;;;;;;;;;21.28;46.50;100528.31;5100106;27;4072;-68
2022/11/24 08:04:49;;;;;;;;;;;;;;;21.30;46.57;100528.41;5101725;27;4024;-68
2022/11/24 08:07:16;;;;;;;;;;;;;;;21.30;46.68;100531.28;5081376;27;4015;-68
2022/11/24 08:09:42;;;;;;;;;;;;;;;21.30;46.68;100537.03;5099730;27;4710;-68
2022/11/24 08:12:08;;;;;;;;;;;;;;;21.31;46.56;100532.75;5105599;27;4152;-68
2022/11/24 08:14:35;;;;;;;;;;;;;;;21.32;46.76;100537.09;5092145;27;4977;-69
2022/11/24 08:17:01;;;;;;;;;;;;;;;21.43;46.33;100534.63;5096828;27;4191;-68
2022/11/24 08:19:28;;;;;;;;;;;;;;;21.53;46.56;100537.88;5093657;27;4313;-67
2022/11/24 08:21:54;;;;;;;;;;;;;;;21.77;47.41;100537.28;5102453;27;4035;-67
2022/11/24 08:24:20;;;;;;;;;;;;;;;21.86;47.44;100536.91;5106348;27;4195;-66
2022/11/24 08:26:47;;;;;;;;;;;;;;;21.88;46.75;100542.00;5102998;27;4094;-66
2022/11/24 08:29:13;;;;;;;;;;;;;;;21.93;47.41;100535.69;5104550;27;4060;-67
2022/11/24 08:31:39;;;;;;;;;;;;;;;21.98;47.30;100551.00;5093000;27;4637;-68
2022/11/24 08:34:06;;;;;;;;;;;;;;;22.04;47.25;100559.13;5101457;27;4136;-68
2022/11/24 08:36:32;;;;;;;;;;;;;;;22.07;47.28;100552.75;5100912;27;4047;-70
2022/11/24 08:38:59;;;;;;;;;;;;;;;22.10;46.93;100551.41;5111300;27;4407;-69
2022/11/24 08:41:25;;;;;;;;;;;;;;;22.09;47.12;100570.13;5098997;27;4028;-70
2022/11/24 08:43:52;;;;;;;;;;;;;;;22.04;47.36;100573.56;5109115;27;4055;-68
2022/11/24 08:46:18;;;;;;;;;;;;;;;22.03;47.18;100569.19;5110453;27;4456;-69
2022/11/24 08:48:48;;;;;;;;;;;;;;;21.91;47.58;100557.97;5111013;27;4100;-70
2022/11/24 08:51:16;;;;;;;;;;;;;;;21.79;47.72;100557.53;5110232;27;4434;-70
2022/11/24 08:53:42;;;;;;;;;;;;;;;21.76;47.82;100565.34;5103930;27;4175;-70
2022/11/24 08:56:09;;;;;;;;;;;;;;;21.74;48.11;100563.16;5115377;27;4042;-70
2022/11/24 08:58:35;;;;;;;;;;;;;;;21.73;47.93;100567.41;5114645;27;4237;-69
2022/11/24 09:01:03;;;;;;;;;;;;;;;22.01;47.90;100564.06;5110874;27;4178;-68
2022/11/24 09:03:29;;;;;;;;;;;;;;;22.11;47.39;100558.66;5104398;27;4205;-68
2022/11/24 09:05:56;;;;;;;;;;;;;;;22.10;47.50;100560.06;5098954;27;4266;-71
2022/11/24 09:08:22;;;;;;;;;;;;;;;22.09;47.57;100561.47;5102757;27;4192;-70
2022/11/24 09:10:48;;;;;;;;;;;;;;;22.03;47.45;100569.91;5106782;27;5198;-72
2022/11/24 09:13:14;;;;;;;;;;;;;;;22.09;47.66;100569.41;5102743;27;4448;-68
2022/11/24 09:15:41;;;;;;;;;;;;;;;21.13;47.28;100566.63;5102876;27;4295;-70
2022/11/24 09:18:07;;;;;;;;;;;;;;;21.45;46.93;100572.16;5102665;27;4196;-69
2022/11/24 09:20:33;;;;;;;;;;;;;;;21.60;46.74;100579.94;5099960;27;4233;-69
2022/11/24 09:23:00;;;;;;;;;;;;;;;21.66;47.25;100583.00;5093762;27;4389;-69
2022/11/24 09:25:26;;;;;;;;;;;;;;;21.79;47.43;100592.84;5088524;27;4305;-72
2022/11/24 09:27:53;;;;;;;;;;;;;;;21.94;47.53;100597.72;5106810;27;4218;-72
2022/11/24 09:30:19;;;;;;;;;;;;;;;21.98;47.27;100596.41;5104742;27;4365;-70
2022/11/24 09:32:46;;;;;;;;;;;;;;;22.00;47.30;100591.44;5099017;27;4771;-71
2022/11/24 09:35:12;;;;;;;;;;;;;;;21.99;47.13;100607.28;5107288;27;4998;-71
2022/11/24 09:37:39;;;;;;;;;;;;;;;21.99;47.13;100598.63;5112533;27;4531;-71
2022/11/24 09:40:05;;;;;;;;;;;;;;;22.05;46.94;100601.69;5111289;27;3974;-69
2022/11/24 09:42:38;;;;;;;;;;;;;;;22.06;47.06;100603.19;5104058;27;4237;-68
2022/11/24 09:45:14;;;;;;;;;;;;;;;22.05;46.78;100598.09;5110399;27;4155;-69
2022/11/24 09:47:59;;;;;;;;;;;;;;;21.93;46.99;100598.41;5098867;27;5299;-70
2022/11/24 09:50:26;;;;;;;;;;;;;;;21.75;47.16;100592.69;5099451;27;5226;-67
2022/11/24 09:53:00;;;;;;;;;;;;;;;21.77;47.00;100592.78;5113378;27;5209;-68
2022/11/24 09:55:41;;;;;;;;;;;;;;;21.75;47.49;100586.94;5114789;27;3980;-68
2022/11/24 09:58:16;;;;;;;;;;;;;;;21.73;47.49;100595.50;5093519;27;4173;-68
2022/11/24 10:00:42;;;;;;;;;;;;;;;21.72;46.93;100594.78;5107366;27;4064;-68
2022/11/24 10:03:15;;;;;;;;;;;;;;;21.83;48.27;100592.25;5081471;27;4084;-69
2022/11/24 10:05:42;;;;;;;;;;;;;;;22.20;47.90;100593.56;5098431;27;4091;-66
2022/11/24 10:08:11;;;;;;;;;;;;;;;22.35;47.66;100595.53;5099379;28;3937;-66
2022/11/24 10:10:41;;;;;;;;;;;;;;;22.14;46.81;100606.34;5082736;28;4644;-68
2022/11/24 10:13:26;;;;;;;;;;;;;;;22.06;46.85;100603.19;5076412;28;5503;-66
2022/11/24 10:15:57;;;;;;;;;;;;;;;22.21;46.91;100601.56;5104390;27;4158;-68
2022/11/24 10:18:36;;;;;;;;;;;;;;;22.32;46.70;100605.53;5086546;28;4144;-68
2022/11/24 10:21:04;;;;;;;;;;;;;;;22.36;46.60;100605.69;5074009;28;4091;-69
2022/11/24 10:23:42;;;;;;;;;;;;;;;22.40;46.09;100605.06;5106569;27;4239;-69
2022/11/24 10:26:17;;;;;;;;;;;;;;;22.43;46.26;100603.75;5094122;28;4240;-68
2022/11/24 10:28:44;;;;;;;;;;;;;;;22.44;46.12;100605.94;5099384;27;4860;-68
2022/11/24 10:31:30;;;;;;;;;;;;;;;22.47;46.47;100604.63;5085158;28;4149;-68
2022/11/24 10:33:59;;;;;;;;;;;;;;;22.47;46.34;100606.75;5087830;28;4096;-67
2022/11/24 10:36:31;;;;;;;;;;;;;;;22.50;45.99;100609.03;5092255;28;6409;-67
2022/11/24 10:39:00;;;;;;;;;;;;;;;22.53;46.09;100615.63;5082082;28;4750;-67
2022/11/24 10:41:32;;;;;;;;;;;;;;;22.47;46.05;100610.38;5093854;27;5214;-68
2022/11/24 10:43:59;;;;;;;;;;;;;;;22.38;45.86;100620.19;5083639;27;4120;-67
2022/11/24 10:46:25;;;;;;;;;;;;;;;22.40;46.24;100626.00;5078196;27;4265;-68
2022/11/24 10:48:52;;;;;;;;;;;;;;;22.43;46.34;100632.59;5092515;27;4030;-68
2022/11/24 10:51:37;;;;;;;;;;;;;;;22.39;46.02;100638.94;5094417;27;5424;-68
2022/11/24 10:54:05;;;;;;;;;;;;;;;22.38;46.23;100632.44;5097119;27;4108;-67
2022/11/24 10:56:39;;;;;;;;;;;;;;;22.43;46.26;100632.59;5100671;27;4160;-69
2022/11/24 10:59:20;;;;;;;;;;;;;;;22.45;46.21;100627.63;5099180;27;4181;-69
2022/11/24 11:01:46;;;;;;;;;;;;;;;22.40;46.15;100628.88;5099545;27;5478;-68
2022/11/24 11:04:33;;;;;;;;;;;;;;;22.44;46.29;100620.38;5097711;27;4079;-72
2022/11/24 11:07:06;;;;;;;;;;;;;;;22.46;45.98;100625.47;5093052;27;4342;-69
2022/11/24 11:09:35;;;;;;;;;;;;;;;22.46;46.16;100626.22;5097687;27;4136;-70
2022/11/24 11:12:11;;;;;;;;;;;;;;;22.54;46.01;100635.16;5093859;27;4007;-68
2022/11/24 11:15:03;;;;;;;;;;;;;;;22.46;45.71;100628.38;5085850;27;5287;-68
2022/11/24 11:17:31;;;;;;;;;;;;;;;22.46;45.84;100629.09;5073100;28;4108;-69
2022/11/24 11:20:01;;;;;;;;;;;;;;;22.45;46.40;100638.41;5083050;28;4160;-69
2022/11/24 11:22:31;;;;;;;;;;;;;;;12.99;50.40;100644.50;5084167;27;4171;-78
2022/11/24 11:25:02;;;;;;;;;;;;;;;18.42;48.85;100645.75;5095894;27;4234;-72
2022/11/24 11:27:28;;;;;;;;;;;;;;;20.45;45.79;100641.56;5096090;27;4121;-75
2022/11/24 11:29:55;;;;;;;;;;;;;;;21.15;45.55;100640.81;5079833;27;5411;-70
2022/11/24 11:32:49;;;;;;;;;;;;;;;21.61;45.00;100630.38;5086770;27;4145;-69
2022/11/24 11:35:36;;;;;;;;;;;;;;;21.89;45.18;100627.06;5096266;27;4150;-67
2022/11/24 11:38:03;;;;;;;;;;;;;;;22.06;45.62;100629.13;5107002;27;4195;-68
2022/11/24 11:40:29;;;;;;;;;;;;;;;22.20;45.54;100633.94;5098486;27;3968;-71
2022/11/24 11:43:01;;;;;;;;;;;;;;;22.27;45.34;100627.00;5106889;27;4270;-70
2022/11/24 11:45:35;;;;;;;;;;;;;;;22.36;45.61;100628.75;5106404;27;3948;-69
2022/11/24 11:48:07;;;;;;;;;;;;;;;22.41;45.04;100636.16;5101593;27;4106;-68
2022/11/24 11:50:39;;;;;;;;;;;;;;;22.41;45.53;100624.59;5083782;27;4130;-68
2022/11/24 11:53:34;;;;;;;;;;;;;;;22.44;45.34;100629.03;5068208;27;4122;-70
2022/11/24 11:56:10;;;;;;;;;;;;;;;21.87;42.99;100642.13;5103738;27;4113;-72
2022/11/24 11:58:49;;;;;;;;;;;;;;;21.17;42.17;100641.63;5094471;27;4176;-68
2022/11/24 12:01:18;;;;;;;;;;;;;;;21.60;44.40;100628.91;5090037;27;4164;-69
2022/11/24 12:03:49;;;;;;;;;;;;;;;21.88;44.35;100634.25;5081783;27;4223;-70
2022/11/24 12:06:16;;;;;;;;;;;;;;;22.05;44.29;100624.03;5093110;27;4046;-74
2022/11/24 12:08:50;;;;;;;;;;;;;;;22.08;45.15;100634.97;5093481;27;4102;-69
2022/11/24 12:11:57;;;;;;;;;;;;;;;22.30;44.98;100637.19;5079969;27;4715;-69
2022/11/24 12:14:23;;;;;;;;;;;;;;;22.41;45.19;100633.25;5066984;27;4217;-69
2022/11/24 12:17:08;;;;;;;;;;;;;;;22.28;45.03;100642.88;5098705;27;4495;-70
2022/11/24 12:19:47;;;;;;;;;;;;;;;22.35;45.15;100638.81;5095498;27;4243;-71
2022/11/24 12:22:16;;;;;;;;;;;;;;;22.46;45.12;100637.03;5099530;27;4204;-68
2022/11/24 12:24:50;;;;;;;;;;;;;;;22.41;45.33;100636.16;5098619;27;5286;-73
2022/11/24 12:27:24;;;;;;;;;;;;;;;22.24;46.32;100640.63;5079531;27;4496;-72
2022/11/24 12:30:01;;;;;;;;;;;;;;;22.20;46.65;100636.81;5094058;27;3989;-72
2022/11/24 12:32:32;;;;;;;;;;;;;;;22.13;46.57;100636.59;5080419;27;4276;-72
2022/11/24 12:35:04;;;;;;;;;;;;;;;22.09;46.79;100642.22;5094046;27;4191;-73
2022/11/24 12:37:49;;;;;;;;;;;;;;;22.17;47.00;100642.50;5086118;27;5135;-70
2022/11/24 12:40:24;;;;;;;;;;;;;;;22.38;46.92;100641.09;5103593;27;4566;-70
2022/11/24 12:42:54;;;;;;;;;;;;;;;22.42;46.40;100636.88;5082558;27;4251;-72
2022/11/24 12:45:21;;;;;;;;;;;;;;;22.51;46.53;100638.63;5103674;27;4186;-72
2022/11/24 12:47:55;;;;;;;;;;;;;;;22.42;46.74;100643.38;5089609;27;4363;-70
2022/11/24 12:50:22;;;;;;;;;;;;;;;22.44;46.86;100646.34;5093273;27;4206;-69
2022/11/24 12:52:49;;;;;;;;;;;;;;;22.50;47.04;100651.59;5076666;28;4230;-71
2022/11/24 12:55:24;;;;;;;;;;;;;;;22.53;47.42;100653.13;5110106;27;5785;-73
2022/11/24 12:57:54;;;;;;;;;;;;;;;22.65;47.41;100647.03;5100506;27;4283;-71